createdAt,value
2022-08-11T00:01:24.293Z,60.27
2022-08-11T00:03:56.952Z,60.22
2022-08-11T00:06:27.910Z,59.97
2022-08-11T00:08:57.377Z,59.90
2022-08-11T00:11:53.529Z,60.36
2022-08-11T00:14:36.867Z,60.35
2022-08-11T00:17:08.578Z,60.54
2022-08-11T00:20:12.554Z,60.57
2022-08-11T00:22:29.886Z,60.57
2022-08-11T00:25:02.404Z,61.02
2022-08-11T00:27:35.052Z,61.08
2022-08-11T00:30:06.430Z,61.15
2022-08-11T00:32:37.677Z,61.10
2022-08-11T00:35:52.470Z,61.01
2022-08-11T00:37:56.602Z,61.09
2022-08-11T00:40:39.495Z,61.28
2022-08-11T00:43:20.550Z,61.58
2022-08-11T00:46:02.247Z,61.52
2022-08-11T00:48:38.717Z,61.63
2022-08-11T00:51:17.260Z,61.62
2022-08-11T00:53:53.219Z,61.62
2022-08-11T00:56:47.158Z,61.74
2022-08-11T00:59:35.474Z,61.66
2022-08-11T01:02:10.067Z,61.85
2022-08-11T01:04:38.837Z,61.78
2022-08-11T01:08:01.381Z,61.81
2022-08-11T01:10:37.920Z,62.06
2022-08-11T01:13:17.100Z,62.06
2022-08-11T01:15:57.078Z,62.13
2022-08-11T01:18:31.850Z,65.83
2022-08-11T01:21:15.213Z,64.29
2022-08-11T01:24:31.270Z,57.37
2022-08-11T01:27:50.956Z,55.26
2022-08-11T01:30:47.063Z,55.81
2022-08-11T01:33:54.146Z,56.83
2022-08-11T01:36:36.867Z,57.38
2022-08-11T01:39:42.964Z,57.90
2022-08-11T01:43:05.725Z,58.37
2022-08-11T01:45:55.396Z,58.74
2022-08-11T01:48:45.188Z,59.23
2022-08-11T01:51:41.952Z,59.52
2022-08-11T01:54:25.337Z,59.72
2022-08-11T01:57:28.835Z,60.13
2022-08-11T02:00:12.862Z,60.29
2022-08-11T02:02:58.362Z,60.59
2022-08-11T02:05:48.329Z,61.11
2022-08-11T02:09:26.428Z,61.47
2022-08-11T02:12:02.658Z,61.65
2022-08-11T02:15:04.624Z,61.81
2022-08-11T02:18:08.108Z,61.90
2022-08-11T02:21:15.016Z,66.87
2022-08-11T02:24:05.789Z,63.35
2022-08-11T02:26:50.686Z,55.77
2022-08-11T02:29:26.503Z,54.51
2022-08-11T02:32:39.149Z,55.26
2022-08-11T02:35:29.545Z,55.97
2022-08-11T02:38:35.656Z,57.21
2022-08-11T02:41:47.915Z,57.78
2022-08-11T02:44:37.919Z,57.95
2022-08-11T02:47:15.338Z,58.86
2022-08-11T02:50:21.957Z,59.50
2022-08-11T02:53:06.558Z,59.80
2022-08-11T02:55:58.280Z,60.39
2022-08-11T02:58:41.349Z,60.53
2022-08-11T03:01:19.695Z,61.10
2022-08-11T03:03:55.892Z,61.42
2022-08-11T03:06:37.308Z,61.72
2022-08-11T03:09:24.589Z,61.89
2022-08-11T03:12:21.026Z,61.90
2022-08-11T03:15:31.246Z,62.10
2022-08-11T03:18:35.191Z,68.37
2022-08-11T03:21:25.069Z,63.67
2022-08-11T03:24:23.602Z,55.42
2022-08-11T03:27:11.176Z,54.40
2022-08-11T03:30:22.377Z,55.36
2022-08-11T03:33:45.844Z,56.51
2022-08-11T03:37:15.575Z,57.45
2022-08-11T03:39:36.450Z,58.34
2022-08-11T03:42:22.869Z,59.12
2022-08-11T03:45:10.371Z,59.36
2022-08-11T03:47:56.800Z,59.52
2022-08-11T03:50:54.430Z,60.15
2022-08-11T03:53:50.497Z,60.59
2022-08-11T03:56:52.377Z,61.19
2022-08-11T03:59:58.386Z,61.20
2022-08-11T04:02:52.279Z,61.35
2022-08-11T04:05:58.702Z,61.77
2022-08-11T04:08:42.119Z,67.78
2022-08-11T04:11:35.032Z,63.53
2022-08-11T04:14:34.355Z,55.93
2022-08-11T04:17:27.627Z,54.76
2022-08-11T04:20:14.535Z,55.82
2022-08-11T04:24:36.861Z,56.87
2022-08-11T04:26:34.289Z,57.33
2022-08-11T04:29:09.706Z,58.21
2022-08-11T04:32:00.541Z,58.68
2022-08-11T04:35:10.233Z,59.00
2022-08-11T04:37:54.726Z,59.34
2022-08-11T04:40:37.993Z,59.85
2022-08-11T04:44:05.445Z,60.08
2022-08-11T04:47:01.114Z,60.41
2022-08-11T04:50:00.483Z,60.68
2022-08-11T04:53:22.090Z,61.10
2022-08-11T04:56:28.347Z,61.48
2022-08-11T04:59:26.976Z,61.85
2022-08-11T05:02:36.075Z,68.56
2022-08-11T05:05:30.978Z,63.24
2022-08-11T05:08:21.897Z,55.63
2022-08-11T05:11:16.462Z,54.23
2022-08-11T05:14:08.861Z,54.90
2022-08-11T05:17:15.588Z,55.67
2022-08-11T05:20:06.721Z,55.97
2022-08-11T05:22:53.777Z,56.80
2022-08-11T05:26:45.212Z,57.16
2022-08-11T05:29:19.695Z,57.34
2022-08-11T05:32:15.712Z,57.45
2022-08-11T05:34:54.855Z,57.62
2022-08-11T05:37:34.997Z,57.80
2022-08-11T05:40:30.808Z,57.69
2022-08-11T05:43:20.421Z,57.39
2022-08-11T05:46:18.808Z,57.30
2022-08-11T05:49:06.128Z,57.25
2022-08-11T05:52:05.415Z,57.50
2022-08-11T05:55:05.360Z,57.51
2022-08-11T05:57:50.396Z,57.63
2022-08-11T06:00:21.033Z,57.68
2022-08-11T06:02:51.961Z,57.87
2022-08-11T06:05:43.201Z,57.60
2022-08-11T06:08:14.094Z,57.50
2022-08-11T06:10:43.873Z,57.41
2022-08-11T06:13:17.670Z,57.28
2022-08-11T06:15:50.269Z,57.27
2022-08-11T06:18:19.431Z,57.21
2022-08-11T06:20:54.200Z,56.50
2022-08-11T06:23:25.216Z,56.13
2022-08-11T06:25:59.064Z,56.09
2022-08-11T06:28:36.228Z,55.64
2022-08-11T06:31:33.810Z,55.24
2022-08-11T06:34:02.177Z,54.91
2022-08-11T06:37:05.278Z,54.44
2022-08-11T06:39:42.953Z,53.99
2022-08-11T06:42:17.241Z,53.86
2022-08-11T06:44:58.372Z,53.14
2022-08-11T06:47:27.654Z,53.01
2022-08-11T06:50:14.972Z,52.99
2022-08-11T06:52:43.572Z,52.50
2022-08-11T06:55:57.094Z,52.46
2022-08-11T06:58:23.047Z,51.99
2022-08-11T07:00:56.349Z,51.69
2022-08-11T07:03:26.320Z,51.86
2022-08-11T07:06:01.303Z,51.56
2022-08-11T07:09:03.535Z,51.62
2022-08-11T07:11:50.144Z,51.43
2022-08-11T07:14:46.110Z,51.33
2022-08-11T07:17:27.061Z,50.73
2022-08-11T07:20:17.031Z,49.86
2022-08-11T07:23:10.804Z,49.57
2022-08-11T07:26:01.728Z,48.91
2022-08-11T07:28:51.835Z,49.16
2022-08-11T07:31:30.737Z,49.28
2022-08-11T07:34:25.683Z,47.10
2022-08-11T07:36:58.330Z,46.40
2022-08-11T07:39:29.044Z,46.24
2022-08-11T07:41:59.927Z,46.65
2022-08-11T07:44:34.979Z,46.12
2022-08-11T07:47:22.694Z,45.52
2022-08-11T07:50:12.684Z,44.44
2022-08-11T07:52:41.204Z,45.08
2022-08-11T07:55:19.687Z,43.78
2022-08-11T07:58:15.467Z,43.69
2022-08-11T08:01:21.691Z,43.34
2022-08-11T08:04:10.580Z,43.66
2022-08-11T08:07:01.750Z,43.45
2022-08-11T08:09:52.434Z,41.93
2022-08-11T08:12:43.316Z,41.50
2022-08-11T08:15:31.395Z,41.46
2022-08-11T08:18:09.443Z,41.72
2022-08-11T08:20:51.330Z,41.74
2022-08-11T08:23:35.790Z,41.32
2022-08-11T08:26:26.488Z,41.61
2022-08-11T08:29:16.177Z,40.40
2022-08-11T08:31:45.184Z,40.84
2022-08-11T08:34:15.961Z,40.63
2022-08-11T08:36:48.588Z,39.24
2022-08-11T08:39:21.942Z,39.09
2022-08-11T08:41:57.883Z,39.25
2022-08-11T08:44:38.216Z,38.54
2022-08-11T08:47:15.503Z,37.50
2022-08-11T08:50:16.470Z,38.36
2022-08-11T08:53:00.938Z,38.87
2022-08-11T08:55:29.859Z,38.78
2022-08-11T08:58:00.732Z,37.83
2022-08-11T09:00:40.724Z,37.54
2022-08-11T09:03:36.673Z,36.50
2022-08-11T09:05:58.757Z,35.72
2022-08-11T09:08:27.561Z,36.73
2022-08-11T09:11:15.235Z,36.33
2022-08-11T09:13:45.462Z,36.33
2022-08-11T09:16:13.886Z,36.45
2022-08-11T09:18:44.735Z,36.93
2022-08-11T09:21:44.457Z,36.50
2022-08-11T09:24:26.850Z,35.74
2022-08-11T09:27:02.977Z,35.73
2022-08-11T09:29:31.997Z,35.63
2022-08-11T09:32:01.633Z,36.02
2022-08-11T09:34:30.297Z,36.62
2022-08-11T09:37:53.839Z,37.28
2022-08-11T09:40:33.876Z,36.96
2022-08-11T09:43:22.734Z,36.01
2022-08-11T09:45:53.653Z,36.75
2022-08-11T09:48:26.250Z,36.55
2022-08-11T09:50:56.432Z,36.31
2022-08-11T09:53:36.730Z,36.39
2022-08-11T09:56:31.571Z,35.72
2022-08-11T09:59:00.352Z,35.88
2022-08-11T10:01:31.443Z,35.78
2022-08-11T10:04:15.537Z,35.62
2022-08-11T10:07:04.650Z,35.38
2022-08-11T10:09:52.892Z,36.15
2022-08-11T10:12:42.724Z,36.48
2022-08-11T10:15:32.115Z,35.74
2022-08-11T10:18:28.432Z,35.91
2022-08-11T10:21:02.060Z,35.10
2022-08-11T10:24:01.146Z,34.88
2022-08-11T10:26:53.693Z,34.75
2022-08-11T10:29:59.680Z,33.41
2022-08-11T10:32:58.509Z,33.65
2022-08-11T10:35:30.804Z,33.46
2022-08-11T10:38:08.910Z,31.86
2022-08-11T10:40:40.164Z,31.69
2022-08-11T10:44:01.958Z,31.12
2022-08-11T10:46:30.145Z,31.95
2022-08-11T10:48:59.322Z,32.16
2022-08-11T10:51:50.928Z,31.80
2022-08-11T10:54:41.997Z,31.77
2022-08-11T10:57:30.329Z,32.13
2022-08-11T11:00:04.548Z,32.01
2022-08-11T11:02:34.004Z,32.24
2022-08-11T11:05:01.894Z,32.36
2022-08-11T11:07:47.578Z,32.61
2022-08-11T11:10:21.739Z,33.20
2022-08-11T11:13:14.526Z,33.45
2022-08-11T11:16:04.569Z,29.81
2022-08-11T11:19:00.928Z,29.89
2022-08-11T11:21:30.387Z,30.30
2022-08-11T11:24:17.224Z,30.69
2022-08-11T11:26:56.230Z,29.13
2022-08-11T11:29:56.151Z,29.01
2022-08-11T11:32:35.895Z,29.19
2022-08-11T11:35:16.100Z,27.00
2022-08-11T11:38:04.504Z,26.92
2022-08-11T11:40:34.279Z,28.22
2022-08-11T11:43:02.504Z,26.27
2022-08-11T11:45:30.757Z,25.91
2022-08-11T11:48:00.237Z,26.23
2022-08-11T11:50:33.102Z,26.45
2022-08-11T11:53:04.960Z,26.13
2022-08-11T11:55:33.869Z,26.82
2022-08-11T11:58:22.084Z,25.48
2022-08-11T12:01:10.147Z,26.77
2022-08-11T12:03:40.452Z,26.55
2022-08-11T12:06:09.702Z,25.38
2022-08-11T12:08:38.237Z,25.35
2022-08-11T12:11:28.850Z,25.10
2022-08-11T12:14:02.129Z,25.55
2022-08-11T12:16:34.410Z,25.24
2022-08-11T12:19:07.246Z,25.05
2022-08-11T12:21:35.368Z,25.23
2022-08-11T12:24:29.209Z,25.70
2022-08-11T12:27:18.232Z,25.17
2022-08-11T12:29:55.313Z,23.91
2022-08-11T12:32:27.669Z,23.79
2022-08-11T12:34:57.323Z,23.84
2022-08-11T12:38:01.230Z,24.07
2022-08-11T12:41:15.094Z,24.62
2022-08-11T12:44:02.351Z,24.15
2022-08-11T12:46:37.635Z,24.21
2022-08-11T12:49:32.224Z,23.76
2022-08-11T12:52:12.785Z,24.36
2022-08-11T12:55:03.886Z,23.43
2022-08-11T12:57:53.239Z,24.05
2022-08-11T13:00:42.639Z,23.94
2022-08-11T13:03:31.142Z,24.73
2022-08-11T13:06:02.833Z,24.02
2022-08-11T13:08:35.418Z,24.06
2022-08-11T13:11:22.774Z,23.83
2022-08-11T13:13:57.916Z,24.57
2022-08-11T13:16:29.714Z,24.67
2022-08-11T13:19:00.959Z,24.93
2022-08-11T13:21:29.639Z,24.86
2022-08-11T13:24:01.179Z,24.68
2022-08-11T13:26:46.888Z,25.21
2022-08-11T13:29:19.936Z,25.68
2022-08-11T13:31:49.134Z,26.53
2022-08-11T13:34:18.098Z,26.21
2022-08-11T13:36:53.181Z,24.80
2022-08-11T13:39:25.174Z,24.85
2022-08-11T13:41:56.919Z,24.31
2022-08-11T13:44:28.992Z,23.92
2022-08-11T13:47:03.790Z,23.19
2022-08-11T13:49:36.647Z,23.44
2022-08-11T13:52:14.149Z,23.83
2022-08-11T13:54:43.049Z,23.90
2022-08-11T13:58:08.833Z,23.30
2022-08-11T14:00:20.898Z,23.18
2022-08-11T14:02:57.270Z,22.80
2022-08-11T14:05:28.703Z,22.82
2022-08-11T14:08:04.123Z,22.64
2022-08-11T14:10:34.569Z,23.17
2022-08-11T14:13:41.419Z,23.12
2022-08-11T14:16:18.721Z,22.58
2022-08-11T14:18:50.660Z,22.23
2022-08-11T14:21:39.751Z,21.83
2022-08-11T14:24:08.584Z,21.39
2022-08-11T14:26:39.244Z,21.35
2022-08-11T14:29:08.654Z,21.73
2022-08-11T14:31:44.625Z,21.66
2022-08-11T14:34:14.575Z,21.95
2022-08-11T14:36:45.535Z,22.42
2022-08-11T14:39:15.959Z,23.14
2022-08-11T14:42:13.384Z,23.53
2022-08-11T14:45:03.224Z,23.42
2022-08-11T14:47:36.358Z,23.21
2022-08-11T14:50:11.239Z,22.22
2022-08-11T14:52:47.279Z,21.03
2022-08-11T14:55:34.967Z,21.38
2022-08-11T14:58:04.820Z,20.54
2022-08-11T15:00:34.492Z,19.17
2022-08-11T15:03:13.231Z,19.19
2022-08-11T15:06:02.373Z,18.40
2022-08-11T15:08:55.058Z,17.79
2022-08-11T15:11:45.273Z,17.25
2022-08-11T15:14:14.360Z,16.11
2022-08-11T15:17:04.486Z,16.22
2022-08-11T15:19:40.545Z,15.97
2022-08-11T15:22:29.426Z,14.81
2022-08-11T15:24:59.375Z,14.86
2022-08-11T15:27:47.710Z,14.78
2022-08-11T15:30:34.838Z,14.69
2022-08-11T15:33:26.233Z,14.11
2022-08-11T15:36:14.776Z,13.59
2022-08-11T15:38:55.411Z,14.46
2022-08-11T15:41:58.433Z,14.33
2022-08-11T15:45:06.512Z,15.73
2022-08-11T15:48:05.040Z,16.70
2022-08-11T15:50:40.536Z,17.52
2022-08-11T15:53:20.527Z,18.63
2022-08-11T15:55:49.078Z,18.29
2022-08-11T15:58:37.725Z,17.81
2022-08-11T16:01:25.068Z,16.72
2022-08-11T16:04:14.417Z,15.74
2022-08-11T16:06:49.696Z,14.76
2022-08-11T16:09:22.853Z,14.35
2022-08-11T16:11:51.963Z,13.97
2022-08-11T16:14:39.083Z,13.92
2022-08-11T16:17:08.421Z,13.85
2022-08-11T16:19:37.070Z,14.43
2022-08-11T16:22:08.840Z,15.09
2022-08-11T16:27:02.678Z,15.72
2022-08-11T16:27:41.239Z,16.08
2022-08-11T16:30:10.668Z,15.51
2022-08-11T16:32:43.128Z,14.87
2022-08-11T16:35:43.476Z,14.09
2022-08-11T16:38:35.880Z,13.25
2022-08-11T16:41:11.397Z,12.67
2022-08-11T16:44:04.583Z,12.04
2022-08-11T16:46:52.340Z,11.30
2022-08-11T16:49:29.421Z,11.19
2022-08-11T16:52:04.086Z,10.97
2022-08-11T16:54:35.648Z,10.62
2022-08-11T16:57:24.619Z,10.53
2022-08-11T16:59:57.910Z,10.58
2022-08-11T17:02:51.201Z,10.38
2022-08-11T17:05:54.135Z,10.31
2022-08-11T17:08:56.665Z,10.21
2022-08-11T17:11:50.290Z,10.29
2022-08-11T17:14:40.651Z,10.14
2022-08-11T17:17:30.663Z,10.00
2022-08-11T17:20:41.259Z,10.12
2022-08-11T17:23:08.590Z,10.45
2022-08-11T17:25:59.287Z,11.70
2022-08-11T17:28:30.907Z,12.84
2022-08-11T17:31:21.872Z,13.93
2022-08-11T17:34:10.371Z,14.92
2022-08-11T17:36:45.126Z,16.01
2022-08-11T17:39:15.482Z,16.89
2022-08-11T17:42:02.905Z,18.05
2022-08-11T17:44:52.142Z,18.71
2022-08-11T17:47:38.885Z,20.13
2022-08-11T17:50:18.145Z,21.36
2022-08-11T17:53:06.096Z,21.75
2022-08-11T17:55:54.023Z,23.06
2022-08-11T17:58:42.512Z,23.95
2022-08-11T18:01:12.069Z,24.31
2022-08-11T18:03:53.106Z,25.15
2022-08-11T18:06:34.302Z,27.38
2022-08-11T18:09:31.114Z,29.76
2022-08-11T18:12:19.251Z,30.60
2022-08-11T18:15:11.093Z,31.60
2022-08-11T18:18:00.759Z,32.37
2022-08-11T18:20:48.568Z,35.08
2022-08-11T18:23:40.502Z,35.52
2022-08-11T18:26:37.059Z,36.95
2022-08-11T18:29:27.999Z,37.20
2022-08-11T18:32:21.931Z,37.97
2022-08-11T18:35:11.866Z,38.59
2022-08-11T18:38:06.802Z,39.01
2022-08-11T18:40:54.565Z,38.62
2022-08-11T18:43:45.913Z,39.85
2022-08-11T18:46:35.156Z,40.46
2022-08-11T18:50:01.465Z,40.23
2022-08-11T18:52:37.862Z,40.09
2022-08-11T18:55:29.651Z,41.68
2022-08-11T18:58:17.037Z,41.74
2022-08-11T19:01:05.312Z,42.54
2022-08-11T19:03:52.777Z,42.48
2022-08-11T19:06:42.315Z,43.28
2022-08-11T19:09:32.202Z,43.82
2022-08-11T19:12:22.623Z,43.64
2022-08-11T19:15:10.294Z,43.98
2022-08-11T19:18:01.778Z,43.84
2022-08-11T19:20:50.858Z,44.86
2022-08-11T19:23:52.536Z,44.29
2022-08-11T19:26:49.778Z,44.24
2022-08-11T19:30:04.907Z,44.47
2022-08-11T19:32:52.296Z,44.92
2022-08-11T19:35:40.083Z,45.10
2022-08-11T19:38:42.059Z,45.45
2022-08-11T19:41:56.381Z,45.70
2022-08-11T19:44:39.754Z,45.70
2022-08-11T19:47:27.714Z,46.42
2022-08-11T19:50:24.199Z,46.88
2022-08-11T19:53:18.910Z,46.96
2022-08-11T19:56:12.119Z,47.20
2022-08-11T19:59:00.145Z,47.27
2022-08-11T20:02:12.984Z,47.05
2022-08-11T20:04:58.198Z,47.46
2022-08-11T20:07:47.717Z,47.58
2022-08-11T20:10:39.664Z,47.88
2022-08-11T20:13:28.491Z,47.99
2022-08-11T20:16:16.644Z,47.79
2022-08-11T20:19:05.140Z,47.48
2022-08-11T20:21:53.515Z,47.63
2022-08-11T20:24:41.773Z,47.61
2022-08-11T20:27:29.033Z,47.71
2022-08-11T20:30:17.199Z,48.05
2022-08-11T20:33:05.505Z,48.08
2022-08-11T20:35:53.130Z,48.39
2022-08-11T20:38:42.306Z,48.28
2022-08-11T20:41:30.431Z,48.32
2022-08-11T20:44:19.655Z,48.65
2022-08-11T20:47:13.253Z,49.05
2022-08-11T20:50:03.133Z,48.92
2022-08-11T20:52:50.994Z,49.23
2022-08-11T20:55:51.519Z,49.44
2022-08-11T21:04:55.338Z,50.71
2022-08-11T21:07:55.178Z,51.16
2022-08-11T21:10:47.239Z,51.21
2022-08-11T21:13:39.734Z,51.42
2022-08-11T21:16:27.794Z,51.59
2022-08-11T21:19:56.373Z,52.17
2022-08-11T21:22:59.299Z,52.38
2022-08-11T21:25:59.298Z,52.86
2022-08-11T21:28:47.904Z,53.18
2022-08-11T21:31:34.780Z,53.66
2022-08-11T21:34:22.006Z,53.98
2022-08-11T21:37:10.846Z,53.96
2022-08-11T21:39:58.512Z,54.46
2022-08-11T21:42:46.587Z,54.50
2022-08-11T21:45:33.620Z,55.09
2022-08-11T21:48:20.914Z,55.29
2022-08-11T21:51:08.711Z,55.17
2022-08-11T21:53:55.774Z,55.52
2022-08-11T21:56:43.912Z,55.72
2022-08-11T21:59:32.141Z,55.79
2022-08-11T22:02:19.008Z,56.05
2022-08-11T22:05:08.440Z,56.57
2022-08-11T22:07:56.764Z,56.74
2022-08-11T22:10:43.782Z,56.77
2022-08-11T22:13:31.801Z,56.42
2022-08-11T22:16:18.333Z,57.16
2022-08-11T22:19:09.602Z,57.36
2022-08-11T22:22:03.975Z,57.62
2022-08-11T22:24:52.943Z,57.71
2022-08-11T22:27:41.042Z,58.14
2022-08-11T22:30:29.372Z,57.40
2022-08-11T22:33:17.412Z,57.06
2022-08-11T22:36:12.609Z,57.01
2022-08-11T22:39:00.639Z,57.18
2022-08-11T22:41:47.475Z,58.19
2022-08-11T22:44:34.466Z,58.49
2022-08-11T22:47:22.596Z,58.88
2022-08-11T22:50:16.717Z,59.57
2022-08-11T22:53:03.980Z,59.97
2022-08-11T22:55:50.628Z,60.45
2022-08-11T22:58:40.243Z,60.53
2022-08-11T23:01:27.318Z,60.57
2022-08-11T23:04:15.069Z,60.75
2022-08-11T23:07:02.626Z,60.91
2022-08-11T23:09:50.057Z,61.08
2022-08-11T23:12:37.207Z,61.20
2022-08-11T23:15:25.619Z,61.14
2022-08-11T23:18:12.812Z,61.35
2022-08-11T23:21:00.858Z,61.35
2022-08-11T23:23:49.679Z,61.24
2022-08-11T23:26:37.941Z,61.17
2022-08-11T23:29:27.076Z,61.11
2022-08-11T23:32:14.220Z,61.00
2022-08-11T23:35:38.374Z,61.10
2022-08-11T23:38:13.705Z,61.05
2022-08-11T23:41:00.455Z,61.35
2022-08-11T23:43:47.278Z,61.56
2022-08-11T23:46:34.275Z,61.75
2022-08-11T23:49:24.387Z,61.82
2022-08-11T23:52:11.505Z,62.08
2022-08-11T23:54:58.095Z,62.07
2022-08-11T23:57:48.808Z,62.11
